Time;durP1;ratioP1;P1;durP2;ratioP2;P2;SDS_P1;SDS_P2;PMS_P1;PMS_P2;Temp;Humidity;BMP_temperature;BMP_pressure;BME280_temperature;BME280_humidity;BME280_pressure;Samples;Min_cycle;Max_cycle;Signal;HPM_P1;HPM_P2
2021/07/05 00:00:32;;;;;;;7.05;2.80;;;;;;;;;;5113564;28;20499;-76
2021/07/05 00:02:58;;;;;;;3.38;2.22;;;;;;;;;;5113241;28;20023;-76
2021/07/05 00:05:24;;;;;;;3.67;2.00;;;;;;;;;;5113128;28;20027;-75
2021/07/05 00:07:51;;;;;;;4.78;2.10;;;;;;;;;;5112932;28;20039;-77
2021/07/05 00:10:19;;;;;;;7.35;2.17;;;;;;;;;;5113017;28;20020;-76
2021/07/05 00:12:45;;;;;;;2.05;1.75;;;;;;;;;;5111813;28;20028;-75
2021/07/05 00:15:13;;;;;;;4.28;1.90;;;;;;;;;;5112993;28;20043;-76
2021/07/05 00:17:40;;;;;;;2.17;1.98;;;;;;;;;;5113071;28;20050;-76
2021/07/05 00:20:07;;;;;;;2.97;2.20;;;;;;;;;;5113218;28;20533;-75
2021/07/05 00:22:33;;;;;;;5.20;2.30;;;;;;;;;;5112988;28;20028;-75
2021/07/05 00:24:59;;;;;;;7.43;2.65;;;;;;;;;;5113237;28;20020;-75
2021/07/05 00:27:25;;;;;;;4.40;2.10;;;;;;;;;;5113238;28;20036;-75
2021/07/05 00:29:51;;;;;;;2.83;2.53;;;;;;;;;;5113045;28;20379;-76
2021/07/05 00:32:17;;;;;;;3.15;2.40;;;;;;;;;;5113101;28;20031;-76
2021/07/05 00:34:43;;;;;;;5.30;2.88;;;;;;;;;;5112883;28;20043;-76
2021/07/05 00:37:09;;;;;;;3.03;2.33;;;;;;;;;;5113117;28;20387;-76
2021/07/05 00:39:35;;;;;;;7.85;2.10;;;;;;;;;;5113109;28;20468;-75
2021/07/05 00:42:01;;;;;;;3.03;2.80;;;;;;;;;;5113376;28;20055;-76
2021/07/05 00:44:27;;;;;;;4.60;2.40;;;;;;;;;;5116683;28;20027;-76
2021/07/05 00:46:53;;;;;;;3.63;2.22;;;;;;;;;;5116502;28;20034;-74
2021/07/05 00:49:19;;;;;;;3.05;2.42;;;;;;;;;;5116568;28;20034;-76
2021/07/05 00:51:46;;;;;;;3.38;2.70;;;;;;;;;;5116465;28;20019;-76
2021/07/05 00:54:12;;;;;;;3.15;2.85;;;;;;;;;;5116085;28;20023;-75
2021/07/05 00:56:38;;;;;;;5.13;3.00;;;;;;;;;;5116367;28;20032;-76
2021/07/05 00:59:05;;;;;;;4.95;2.65;;;;;;;;;;5113937;27;20032;-77
2021/07/05 01:01:31;;;;;;;3.55;2.63;;;;;;;;;;5113678;28;20035;-76
2021/07/05 01:03:57;;;;;;;3.17;2.60;;;;;;;;;;5113733;28;20051;-77
2021/07/05 01:06:23;;;;;;;4.53;2.80;;;;;;;;;;5116153;28;20039;-78
2021/07/05 01:08:49;;;;;;;5.72;3.15;;;;;;;;;;5116348;27;20032;-76
2021/07/05 01:11:17;;;;;;;2.95;2.65;;;;;;;;;;5116072;28;20111;-76
2021/07/05 01:13:43;;;;;;;5.43;2.65;;;;;;;;;;5115402;28;20043;-75
2021/07/05 01:16:09;;;;;;;4.10;2.60;;;;;;;;;;5115785;28;20023;-77
2021/07/05 01:18:35;;;;;;;5.28;2.47;;;;;;;;;;5115890;27;20042;-76
2021/07/05 01:21:01;;;;;;;3.35;2.40;;;;;;;;;;5115760;28;20422;-76
2021/07/05 01:23:28;;;;;;;5.07;2.60;;;;;;;;;;5114360;28;20027;-76
2021/07/05 01:25:54;;;;;;;6.47;3.08;;;;;;;;;;5114869;28;20019;-74
2021/07/05 01:28:20;;;;;;;3.90;2.92;;;;;;;;;;5114731;28;20084;-76
2021/07/05 01:30:46;;;;;;;6.30;3.25;;;;;;;;;;5115783;28;20020;-76
2021/07/05 01:33:14;;;;;;;4.80;3.45;;;;;;;;;;5115596;28;20027;-75
2021/07/05 01:35:40;;;;;;;3.72;3.10;;;;;;;;;;5115294;27;20019;-77
2021/07/05 01:38:10;;;;;;;4.53;3.42;;;;;;;;;;5115514;28;20034;-75
2021/07/05 01:40:37;;;;;;;5.78;3.20;;;;;;;;;;5115494;28;20353;-75
2021/07/05 01:43:03;;;;;;;6.82;3.60;;;;;;;;;;5115396;28;20507;-75
2021/07/05 01:45:30;;;;;;;4.47;3.60;;;;;;;;;;5115478;28;20522;-76
2021/07/05 01:47:57;;;;;;;6.00;3.53;;;;;;;;;;5115193;28;20119;-76
2021/07/05 01:50:24;;;;;;;6.15;3.58;;;;;;;;;;5115378;28;20019;-76
2021/07/05 01:52:51;;;;;;;6.47;3.08;;;;;;;;;;5115559;28;20066;-76
2021/07/05 01:55:17;;;;;;;3.72;3.30;;;;;;;;;;5114195;28;20052;-76
2021/07/05 01:57:43;;;;;;;5.68;3.25;;;;;;;;;;5114811;28;20031;-76
2021/07/05 02:00:19;;;;;;;8.15;3.10;;;;;;;;;;5114832;28;20051;-74
2021/07/05 02:02:46;;;;;;;4.22;3.13;;;;;;;;;;5115102;28;20387;-76
2021/07/05 02:05:13;;;;;;;3.78;3.20;;;;;;;;;;5113896;28;20019;-76
2021/07/05 02:07:39;;;;;;;10.85;3.20;;;;;;;;;;5114834;28;20118;-75
2021/07/05 02:10:08;;;;;;;6.00;3.58;;;;;;;;;;5114924;28;20030;-75
2021/07/05 02:12:35;;;;;;;5.82;3.45;;;;;;;;;;5115151;28;20032;-77
2021/07/05 02:15:01;;;;;;;6.47;3.38;;;;;;;;;;5114792;28;20485;-76
2021/07/05 02:17:27;;;;;;;3.45;3.00;;;;;;;;;;5114819;28;20464;-76
2021/07/05 02:19:53;;;;;;;8.10;3.08;;;;;;;;;;5113355;28;20061;-75
2021/07/05 02:22:20;;;;;;;4.32;3.00;;;;;;;;;;5114141;28;20037;-76
2021/07/05 02:24:46;;;;;;;3.63;2.90;;;;;;;;;;5114797;28;20024;-75
2021/07/05 02:27:12;;;;;;;4.70;3.10;;;;;;;;;;5114383;28;20024;-75
2021/07/05 02:29:38;;;;;;;5.55;2.92;;;;;;;;;;5114456;28;20453;-76
2021/07/05 02:32:05;;;;;;;7.57;3.33;;;;;;;;;;5114260;28;20482;-74
2021/07/05 02:34:31;;;;;;;8.95;4.13;;;;;;;;;;5114152;28;20028;-76
2021/07/05 02:36:57;;;;;;;5.78;3.20;;;;;;;;;;5114514;28;20102;-73
2021/07/05 02:39:23;;;;;;;3.38;3.03;;;;;;;;;;5114441;28;20022;-75
2021/07/05 02:41:50;;;;;;;7.47;3.00;;;;;;;;;;5114217;28;20032;-76
2021/07/05 02:44:16;;;;;;;3.42;3.13;;;;;;;;;;5114401;28;20030;-75
2021/07/05 02:46:42;;;;;;;6.43;3.22;;;;;;;;;;5114145;28;20055;-76
2021/07/05 02:49:08;;;;;;;5.05;3.25;;;;;;;;;;5114207;28;20023;-76
2021/07/05 02:51:34;;;;;;;4.60;3.22;;;;;;;;;;5114080;28;20483;-76
2021/07/05 02:54:00;;;;;;;6.90;3.38;;;;;;;;;;5114068;28;20028;-76
2021/07/05 02:56:27;;;;;;;5.75;3.15;;;;;;;;;;5114112;28;20106;-75
2021/07/05 02:58:53;;;;;;;7.95;3.22;;;;;;;;;;5114028;28;20030;-75
2021/07/05 03:01:19;;;;;;;2.92;2.60;;;;;;;;;;5114247;28;20487;-76
2021/07/05 03:03:45;;;;;;;5.82;2.38;;;;;;;;;;5113914;28;20028;-75
2021/07/05 03:06:12;;;;;;;4.20;2.35;;;;;;;;;;5113770;28;20373;-77
2021/07/05 03:08:38;;;;;;;5.63;2.47;;;;;;;;;;5113887;28;20031;-76
2021/07/05 03:11:07;;;;;;;4.57;2.40;;;;;;;;;;5114169;28;20024;-76
2021/07/05 03:13:33;;;;;;;4.97;1.90;;;;;;;;;;5113724;28;20042;-77
2021/07/05 03:15:59;;;;;;;5.10;2.15;;;;;;;;;;5114069;28;20102;-76
2021/07/05 03:18:25;;;;;;;6.47;2.30;;;;;;;;;;5114202;28;20031;-77
2021/07/05 03:20:52;;;;;;;7.47;2.10;;;;;;;;;;5113888;28;20054;-77
2021/07/05 03:23:19;;;;;;;7.60;2.08;;;;;;;;;;5113595;28;20032;-78
2021/07/05 03:25:46;;;;;;;4.35;1.95;;;;;;;;;;5113614;28;20499;-75
2021/07/05 03:28:12;;;;;;;6.85;1.83;;;;;;;;;;5113637;28;20563;-77
2021/07/05 03:30:39;;;;;;;8.18;2.20;;;;;;;;;;5113718;28;20015;-76
2021/07/05 03:33:06;;;;;;;5.97;1.25;;;;;;;;;;5113400;28;20032;-76
2021/07/05 03:35:32;;;;;;;3.75;1.50;;;;;;;;;;5113521;28;20063;-75
2021/07/05 03:37:58;;;;;;;6.88;1.38;;;;;;;;;;5113541;28;20034;-75
2021/07/05 03:40:26;;;;;;;2.13;1.25;;;;;;;;;;5113417;28;20028;-76
2021/07/05 03:42:52;;;;;;;7.20;1.55;;;;;;;;;;5113398;28;20030;-76
2021/07/05 03:45:20;;;;;;;5.30;1.13;;;;;;;;;;5113324;28;20020;-77
2021/07/05 03:47:46;;;;;;;4.78;1.40;;;;;;;;;;5113215;28;20036;-76
2021/07/05 03:50:13;;;;;;;7.82;1.30;;;;;;;;;;5113356;28;20545;-78
2021/07/05 03:52:39;;;;;;;6.30;1.50;;;;;;;;;;5112090;28;20028;-77
2021/07/05 03:55:07;;;;;;;2.72;1.00;;;;;;;;;;5113303;28;20376;-77
2021/07/05 03:57:33;;;;;;;11.57;2.33;;;;;;;;;;5113323;28;20028;-75
2021/07/05 03:59:59;;;;;;;4.32;1.20;;;;;;;;;;5113403;28;20106;-75
2021/07/05 04:02:26;;;;;;;9.55;1.95;;;;;;;;;;5113224;28;20099;-77
2021/07/05 04:04:54;;;;;;;5.72;1.15;;;;;;;;;;5113264;28;20016;-76
2021/07/05 04:07:20;;;;;;;7.57;3.80;;;;;;;;;;5113023;28;20031;-76
2021/07/05 04:09:47;;;;;;;6.68;2.30;;;;;;;;;;5112790;28;20028;-76
2021/07/05 04:12:13;;;;;;;6.32;2.58;;;;;;;;;;5112920;28;20015;-77
2021/07/05 04:14:40;;;;;;;7.35;1.75;;;;;;;;;;5112729;28;20063;-76
2021/07/05 04:17:06;;;;;;;9.55;1.83;;;;;;;;;;5114002;28;20024;-77
2021/07/05 04:19:32;;;;;;;5.43;1.48;;;;;;;;;;5117430;28;20028;-78
2021/07/05 04:21:59;;;;;;;8.07;1.50;;;;;;;;;;5115938;28;20088;-75
2021/07/05 04:24:25;;;;;;;3.22;1.23;;;;;;;;;;5116738;28;20039;-77
2021/07/05 04:26:51;;;;;;;5.97;1.30;;;;;;;;;;5116898;28;20043;-76
2021/07/05 04:29:17;;;;;;;6.57;1.17;;;;;;;;;;5115399;28;20016;-76
2021/07/05 04:31:43;;;;;;;4.10;1.10;;;;;;;;;;5116268;28;20098;-77
2021/07/05 04:34:09;;;;;;;3.80;1.10;;;;;;;;;;5117012;28;20024;-77
2021/07/05 04:36:36;;;;;;;2.22;1.08;;;;;;;;;;5117122;28;20028;-74
2021/07/05 04:39:06;;;;;;;6.47;1.27;;;;;;;;;;5117111;28;20019;-76
2021/07/05 04:41:32;;;;;;;3.60;1.30;;;;;;;;;;5116760;28;20084;-78
2021/07/05 04:43:58;;;;;;;2.58;1.15;;;;;;;;;;5116287;28;20380;-76
2021/07/05 04:46:25;;;;;;;6.28;2.38;;;;;;;;;;5116550;28;20062;-72
2021/07/05 04:48:54;;;;;;;5.05;1.50;;;;;;;;;;5116541;28;20061;-72
2021/07/05 04:51:20;;;;;;;5.53;1.63;;;;;;;;;;5116768;28;20468;-71
2021/07/05 04:53:46;;;;;;;5.47;2.00;;;;;;;;;;5116725;28;20054;-72
2021/07/05 04:56:13;;;;;;;6.03;2.00;;;;;;;;;;5116510;28;20019;-72
2021/07/05 04:58:39;;;;;;;8.43;1.75;;;;;;;;;;5116349;28;20043;-71
2021/07/05 05:01:05;;;;;;;6.80;1.80;;;;;;;;;;5116529;28;20068;-73
2021/07/05 05:03:32;;;;;;;6.05;1.70;;;;;;;;;;5116353;28;20501;-72
2021/07/05 05:05:58;;;;;;;5.85;1.77;;;;;;;;;;5116411;28;20030;-72
2021/07/05 05:08:24;;;;;;;5.47;2.10;;;;;;;;;;5116242;28;20031;-72
2021/07/05 05:10:50;;;;;;;3.45;1.95;;;;;;;;;;5116331;28;20349;-72
2021/07/05 05:13:16;;;;;;;5.53;2.20;;;;;;;;;;5115757;28;20032;-72
2021/07/05 05:15:42;;;;;;;7.95;2.30;;;;;;;;;;5116180;28;20498;-71
2021/07/05 05:18:08;;;;;;;10.50;2.67;;;;;;;;;;5116439;28;20379;-73
2021/07/05 05:20:35;;;;;;;5.95;2.53;;;;;;;;;;5116301;27;20097;-72
2021/07/05 05:23:01;;;;;;;11.05;2.75;;;;;;;;;;5115714;28;20047;-72
2021/07/05 05:25:27;;;;;;;6.47;2.90;;;;;;;;;;5115064;28;20031;-72
2021/07/05 05:27:53;;;;;;;14.82;3.22;;;;;;;;;;5115299;27;20046;-71
2021/07/05 05:30:20;;;;;;;16.77;3.47;;;;;;;;;;5114948;28;20484;-71
2021/07/05 05:32:47;;;;;;;10.70;2.95;;;;;;;;;;5115623;28;20036;-71
2021/07/05 05:35:14;;;;;;;6.82;2.75;;;;;;;;;;5115554;28;20046;-71
2021/07/05 05:37:40;;;;;;;8.20;2.80;;;;;;;;;;5115709;28;20028;-71
2021/07/05 05:40:07;;;;;;;12.65;3.33;;;;;;;;;;5115747;28;20043;-71
2021/07/05 05:42:33;;;;;;;9.50;2.88;;;;;;;;;;5115790;28;20039;-71
2021/07/05 05:44:59;;;;;;;17.92;3.85;;;;;;;;;;5115531;28;20020;-71
2021/07/05 05:47:25;;;;;;;7.78;2.78;;;;;;;;;;5115407;28;20032;-71
2021/07/05 05:49:51;;;;;;;5.43;2.80;;;;;;;;;;5115384;28;20015;-71
2021/07/05 05:52:17;;;;;;;4.90;2.58;;;;;;;;;;5115386;28;20031;-70
2021/07/05 05:54:43;;;;;;;4.45;2.55;;;;;;;;;;5115022;28;20440;-72
2021/07/05 05:57:25;;;;;;;4.55;1.90;;;;;;;;;;5115276;28;20043;-71
2021/07/05 05:59:51;;;;;;;5.90;2.30;;;;;;;;;;5115471;28;20024;-72
2021/07/05 06:02:17;;;;;;;9.35;2.10;;;;;;;;;;5114861;28;20426;-72
2021/07/05 06:04:43;;;;;;;4.95;2.42;;;;;;;;;;5114612;28;20482;-71
2021/07/05 06:07:09;;;;;;;6.13;2.10;;;;;;;;;;5115067;28;20036;-71
2021/07/05 06:09:35;;;;;;;7.13;2.33;;;;;;;;;;5115321;28;20020;-70
2021/07/05 06:12:01;;;;;;;6.45;2.08;;;;;;;;;;5115225;28;20102;-71
2021/07/05 06:14:27;;;;;;;6.72;2.20;;;;;;;;;;5114510;28;20035;-70
2021/07/05 06:16:53;;;;;;;7.40;2.25;;;;;;;;;;5115191;28;20038;-71
2021/07/05 06:19:19;;;;;;;6.82;2.20;;;;;;;;;;5114823;28;20020;-71
2021/07/05 06:21:45;;;;;;;4.93;2.30;;;;;;;;;;5114577;28;20019;-71
2021/07/05 06:24:11;;;;;;;10.13;2.58;;;;;;;;;;5114630;28;20491;-71
2021/07/05 06:26:37;;;;;;;12.10;4.13;;;;;;;;;;5114851;28;20464;-73
2021/07/05 06:29:03;;;;;;;10.30;4.03;;;;;;;;;;5114846;28;20038;-70
2021/07/05 06:31:32;;;;;;;5.35;2.63;;;;;;;;;;5113793;28;20015;-71
2021/07/05 06:33:58;;;;;;;7.82;2.00;;;;;;;;;;5113591;28;20035;-71
2021/07/05 06:36:24;;;;;;;7.00;2.15;;;;;;;;;;5113999;28;20020;-71
2021/07/05 06:38:50;;;;;;;3.38;1.70;;;;;;;;;;5114506;28;20227;-71
2021/07/05 06:41:16;;;;;;;4.55;1.83;;;;;;;;;;5114285;28;20031;-71
2021/07/05 06:43:42;;;;;;;3.83;1.80;;;;;;;;;;5115499;27;20544;-71
2021/07/05 06:46:09;;;;;;;5.60;1.83;;;;;;;;;;5114709;28;20027;-71
2021/07/05 06:48:35;;;;;;;3.67;1.90;;;;;;;;;;5114278;28;20088;-71
2021/07/05 06:51:01;;;;;;;5.30;1.67;;;;;;;;;;5114376;28;20020;-77
2021/07/05 06:53:27;;;;;;;6.47;1.60;;;;;;;;;;5113902;27;20031;-72
2021/07/05 06:55:53;;;;;;;4.85;1.60;;;;;;;;;;5114110;28;20023;-71
2021/07/05 06:58:19;;;;;;;2.72;1.55;;;;;;;;;;5114156;27;20123;-71
2021/07/05 07:00:46;;;;;;;5.88;1.60;;;;;;;;;;5113238;28;20103;-71
2021/07/05 07:03:12;;;;;;;2.95;1.60;;;;;;;;;;5114124;28;20026;-71
2021/07/05 07:05:38;;;;;;;8.68;1.80;;;;;;;;;;5114428;28;20039;-72
2021/07/05 07:08:05;;;;;;;5.07;2.00;;;;;;;;;;5114279;28;20551;-71
2021/07/05 07:10:31;;;;;;;3.72;1.48;;;;;;;;;;5114062;28;20020;-72
2021/07/05 07:12:57;;;;;;;5.80;1.50;;;;;;;;;;5114134;28;20024;-75
2021/07/05 07:15:36;;;;;;;2.53;1.50;;;;;;;;;;5113606;28;20124;-72
2021/07/05 07:20:49;;;;;;;2.83;1.35;;;;;;;;;;5113808;28;20047;-71
2021/07/05 07:23:15;;;;;;;4.18;1.40;;;;;;;;;;5113859;28;20054;-71
2021/07/05 07:25:41;;;;;;;5.72;1.58;;;;;;;;;;5113472;28;20054;-71
2021/07/05 07:28:07;;;;;;;4.85;1.40;;;;;;;;;;5109988;28;20032;-72
2021/07/05 07:30:33;;;;;;;3.78;1.48;;;;;;;;;;5111956;28;20089;-71
2021/07/05 07:32:59;;;;;;;4.50;1.40;;;;;;;;;;5113270;28;20023;-70
2021/07/05 07:35:25;;;;;;;7.15;1.40;;;;;;;;;;5113260;28;20062;-72
2021/07/05 07:37:52;;;;;;;3.60;1.50;;;;;;;;;;5113333;28;20031;-73
2021/07/05 07:40:21;;;;;;;3.25;1.50;;;;;;;;;;5111922;28;20024;-71
2021/07/05 07:42:47;;;;;;;4.20;1.70;;;;;;;;;;5111709;28;20016;-72
2021/07/05 07:45:15;;;;;;;7.15;1.40;;;;;;;;;;5113205;28;20027;-73
2021/07/05 07:47:41;;;;;;;4.03;1.58;;;;;;;;;;5113004;28;20031;-72
2021/07/05 07:50:09;;;;;;;5.28;1.42;;;;;;;;;;5113097;28;20103;-73
2021/07/05 07:52:37;;;;;;;3.47;1.50;;;;;;;;;;5112554;28;20020;-72
2021/07/05 07:55:03;;;;;;;2.28;1.40;;;;;;;;;;5112117;28;20111;-73
2021/07/05 07:57:29;;;;;;;5.50;1.40;;;;;;;;;;5113809;28;20043;-75
2021/07/05 07:59:55;;;;;;;5.88;1.60;;;;;;;;;;5113206;28;20161;-71
2021/07/05 08:02:21;;;;;;;2.58;1.40;;;;;;;;;;5113504;28;20061;-72
2021/07/05 08:04:47;;;;;;;2.33;1.30;;;;;;;;;;5113723;28;20020;-72
2021/07/05 08:07:13;;;;;;;3.55;1.52;;;;;;;;;;5112421;28;20026;-71
2021/07/05 08:09:40;;;;;;;4.45;1.42;;;;;;;;;;5111835;28;20027;-71
2021/07/05 08:12:07;;;;;;;3.03;1.05;;;;;;;;;;5112758;28;20398;-71
2021/07/05 08:14:34;;;;;;;4.63;1.20;;;;;;;;;;5113169;28;20060;-71
2021/07/05 08:17:00;;;;;;;2.22;1.33;;;;;;;;;;5113155;28;20514;-70
2021/07/05 08:19:26;;;;;;;4.32;1.40;;;;;;;;;;5113324;28;20027;-71
2021/07/05 08:21:52;;;;;;;1.38;1.02;;;;;;;;;;5112279;28;20024;-71
2021/07/05 08:24:18;;;;;;;4.70;1.50;;;;;;;;;;5113369;28;20028;-74
2021/07/05 08:26:44;;;;;;;5.28;1.20;;;;;;;;;;5113182;28;20031;-72
2021/07/05 08:29:10;;;;;;;1.85;1.30;;;26.10;57.00;;;;;;5113290;28;20063;-70
2021/07/05 08:31:35;;;;;;;1.98;1.25;;;23.80;75.30;;;;;;5113033;28;20059;-69
2021/07/05 08:34:01;;;;;;;4.22;1.40;;;23.80;74.80;;;;;;5113144;28;20552;-70
2021/07/05 08:36:28;;;;;;;3.88;1.17;;;23.90;74.80;;;;;;5112927;28;20099;-70
2021/07/05 08:38:54;;;;;;;2.75;1.20;;;23.90;75.00;;;;;;5112911;28;20492;-71
2021/07/05 08:41:20;;;;;;;4.63;1.05;;;23.90;75.10;;;;;;5112958;28;20413;-71
2021/07/05 08:43:47;;;;;;;5.90;1.45;;;24.00;74.70;;;;;;5112001;28;20073;-71
2021/07/05 08:46:17;;;;;;;1.80;0.95;;;24.00;73.80;;;;;;5111660;28;20043;-72
2021/07/05 08:48:44;;;;;;;3.72;1.08;;;24.10;73.60;;;;;;5112406;28;20035;-71
2021/07/05 08:51:13;;;;;;;4.40;1.00;;;24.20;72.80;;;;;;5112516;28;20102;-71
2021/07/05 08:53:40;;;;;;;2.00;1.15;;;;;;;;;;5113047;28;20028;-71
2021/07/05 08:56:06;;;;;;;1.58;0.98;;;;;;;;;;5112754;28;20444;-70
2021/07/05 08:58:32;;;;;;;3.90;0.90;;;;;;;;;;5113124;28;20016;-71
2021/07/05 09:00:58;;;;;;;3.75;0.73;;;;;;;;;;5113082;28;20035;-71
2021/07/05 09:03:25;;;;;;;1.30;0.85;;;;;;;;;;5114066;28;20065;-71
2021/07/05 09:06:07;;;;;;;4.53;0.75;;;;;;;;;;5114419;28;20028;-71
2021/07/05 09:08:38;;;;;;;1.70;0.80;;;;;;;;;;5113718;28;20035;-71
2021/07/05 09:11:06;;;;;;;1.92;0.70;;;;;;;;;;5115409;28;20024;-71
2021/07/05 09:13:32;;;;;;;2.30;0.77;;;;;;;;;;5116413;28;20046;-71
2021/07/05 09:16:01;;;;;;;2.53;0.90;;;;;;;;;;5116572;28;20024;-71
2021/07/05 09:18:30;;;;;;;1.63;0.80;;;;;;;;;;5116428;28;20023;-71
2021/07/05 09:20:59;;;;;;;1.10;0.70;;;;;;;;;;5116345;28;20024;-71
2021/07/05 09:23:25;;;;;;;2.92;0.70;;;;;;;;;;5116334;28;20478;-71
2021/07/05 09:25:55;;;;;;;0.70;0.60;;;;;;;;;;5115053;28;20560;-71
2021/07/05 09:28:23;;;;;;;0.82;0.60;;;;;;;;;;5116134;28;20036;-71
2021/07/05 09:30:54;;;;;;;2.63;0.70;;;;;;;;;;5115986;28;20053;-71
2021/07/05 09:33:20;;;;;;;0.70;0.70;;;;;;;;;;5115993;28;20524;-71
2021/07/05 09:35:57;;;;;;;0.50;0.50;;;;;;;;;;5116418;28;20043;-71
2021/07/05 09:38:31;;;;;;;0.98;0.70;;;;;;;;;;5114764;28;20102;-71
2021/07/05 09:40:57;;;;;;;0.50;0.50;;;;;;;;;;5116145;28;20103;-71
2021/07/05 09:43:24;;;;;;;1.42;0.50;;;;;;;;;;5115975;28;20020;-71
2021/07/05 09:45:51;;;;;;;2.78;0.63;;;;;;;;;;5116015;28;20110;-71
2021/07/05 09:48:18;;;;;;;2.03;0.77;;;;;;;;;;5115629;28;20487;-71
2021/07/05 09:50:45;;;;;;;2.17;0.50;;;;;;;;;;5115637;28;20467;-71
2021/07/05 09:53:27;;;;;;;6.72;1.15;;;;;;;;;;5115853;28;20431;-71
2021/07/05 09:55:54;;;;;;;3.05;0.60;;;;;;;;;;5115931;28;20416;-71
2021/07/05 09:58:30;;;;;;;1.23;0.40;;;;;;;;;;5115738;28;20491;-71
2021/07/05 10:00:56;;;;;;;1.70;0.65;;;;;;;;;;5115653;28;20028;-70
2021/07/05 10:03:33;;;;;;;1.75;0.60;;;;;;;;;;5115684;28;20414;-71
2021/07/05 10:06:14;;;;;;;1.42;0.70;;;;;;;;;;5115784;28;20018;-71
2021/07/05 10:08:40;;;;;;;2.90;0.63;;;;;;;;;;5115349;28;20028;-71
2021/07/05 10:11:06;;;;;;;1.80;0.70;;;;;;;;;;5115623;28;20107;-71
2021/07/05 10:13:33;;;;;;;1.05;0.47;;;;;;;;;;5115462;28;20066;-71
2021/07/05 10:16:10;;;;;;;1.13;0.60;;;;;;;;;;5114749;28;20030;-71
2021/07/05 10:18:36;;;;;;;1.20;0.70;;;;;;;;;;5115437;28;20080;-71
2021/07/05 10:21:04;;;;;;;2.05;0.70;;;;;;;;;;5115020;28;20376;-71
2021/07/05 10:23:30;;;;;;;2.05;0.50;;;;;;;;;;5114324;28;20071;-71
2021/07/05 10:25:56;;;;;;;1.17;0.43;;;;;;;;;;5114675;28;20019;-71
2021/07/05 10:28:22;;;;;;;0.80;0.73;;;;;;;;;;5114642;28;20110;-71
2021/07/05 10:30:53;;;;;;;4.97;0.70;;;;;;;;;;5114981;28;20019;-71
2021/07/05 10:33:20;;;;;;;3.65;0.50;;;;;;;;;;5114500;28;20043;-71
2021/07/05 10:35:47;;;;;;;4.13;0.50;;;;;;;;;;5114387;28;20098;-70
2021/07/05 10:38:21;;;;;;;0.70;0.40;;;;;;;;;;5114196;28;20487;-74
2021/07/05 10:40:49;;;;;;;0.80;0.50;;;;;;;;;;5114232;28;20057;-71
2021/07/05 10:43:19;;;;;;;0.38;0.30;;;;;;;;;;5114482;28;20035;-72
2021/07/05 10:45:48;;;;;;;3.60;0.50;;;;;;;;;;5114880;28;20053;-72
2021/07/05 10:48:16;;;;;;;2.75;1.13;;;;;;;;;;5114141;28;20036;-73
2021/07/05 10:50:42;;;;;;;2.58;0.50;;;;;;;;;;5114378;28;20085;-72
2021/07/05 10:53:12;;;;;;;0.52;0.43;;;;;;;;;;5114448;28;20028;-73
2021/07/05 10:55:43;;;;;;;1.13;0.57;;;;;;;;;;5114254;28;20029;-72
2021/07/05 10:58:28;;;;;;;0.70;0.40;;;;;;;;;;5114220;28;20035;-72
2021/07/05 11:00:57;;;;;;;0.57;0.50;;;;;;;;;;5114342;28;20059;-71
2021/07/05 11:03:38;;;;;;;0.73;0.50;;;24.20;72.10;;;;;;5113970;28;20390;-72
2021/07/05 11:06:14;;;;;;;0.65;0.47;;;27.20;52.80;;;;;;5114508;27;20050;-73
2021/07/05 11:08:43;;;;;;;0.63;0.40;;;27.20;52.50;;;;;;5114132;28;20035;-72
2021/07/05 11:11:27;;;;;;;2.90;0.60;;;27.20;52.40;;;;;;5113965;28;20024;-73
2021/07/05 11:14:20;;;;;;;3.03;0.60;;;27.30;51.70;;;;;;5114094;28;20077;-72
2021/07/05 11:17:05;;;;;;;0.57;0.50;;;27.30;51.40;;;;;;5114012;28;20030;-72
2021/07/05 11:19:39;;;;;;;1.00;0.50;;;27.30;51.50;;;;;;5114084;28;20020;-73
2021/07/05 11:22:10;;;;;;;0.68;0.60;;;;;;;;;;5114344;28;20028;-72
2021/07/05 11:24:37;;;;;;;2.67;0.53;;;;;;;;;;5113891;28;20035;-72
2021/07/05 11:27:22;;;;;;;1.80;0.52;;;;;;;;;;5113795;28;20337;-72
2021/07/05 11:29:48;;;;;;;1.02;0.75;;;;;;;;;;5114039;28;20032;-72
2021/07/05 11:32:32;;;;;;;1.73;0.90;;;;;;;;;;5113430;28;20020;-73
2021/07/05 11:34:58;;;;;;;1.60;1.00;;;;;;;;;;5113988;28;20421;-73
2021/07/05 11:37:24;;;;;;;0.85;0.80;;;;;;;;;;5113928;28;20073;-71
2021/07/05 11:39:52;;;;;;;1.98;1.00;;;;;;;;;;5113202;28;20023;-72
2021/07/05 11:42:22;;;;;;;3.08;0.85;;;;;;;;;;5120620;27;20028;-75
2021/07/05 11:44:49;;;;;;;1.65;0.98;;;;;;;;;;5121902;27;20031;-74
2021/07/05 11:47:34;;;;;;;1.65;0.93;;;;;;;;;;5123307;27;20492;-74
2021/07/05 11:50:15;;;;;;;5.88;1.00;;;;;;;;;;5122631;27;20028;-74
2021/07/05 11:52:48;;;;;;;1.77;0.88;;;;;;;;;;5122668;27;20020;-72
2021/07/05 11:55:15;;;;;;;2.75;0.80;;;;;;;;;;5120462;27;20019;-73
2021/07/05 11:57:48;;;;;;;3.95;1.10;;;;;;;;;;5122099;27;20340;-73
2021/07/05 12:00:14;;;;;;;2.58;0.80;;;;;;;;;;5120242;28;20130;-72
2021/07/05 12:02:41;;;;;;;3.45;1.10;;;;;;;;;;5122088;27;20015;-71
2021/07/05 12:05:08;;;;;;;2.05;1.05;;;;;;;;;;5124045;28;20078;-71
2021/07/05 12:07:34;;;;;;;2.80;0.60;;;;;;;;;;5122702;28;20420;-71
2021/07/05 12:10:01;;;;;;;1.75;0.88;;;;;;;;;;5122426;27;20023;-71
2021/07/05 12:12:30;;;;;;;2.60;0.88;;;;;;;;;;5123856;28;20023;-71
2021/07/05 12:14:56;;;;;;;2.10;0.90;;;;;;;;;;5122635;28;20040;-70
2021/07/05 12:17:23;;;;;;;0.82;0.80;;;;;;;;;;5121189;27;20416;-70
2021/07/05 12:19:52;;;;;;;0.73;0.73;;;;;;;;;;5123194;28;20098;-70
2021/07/05 12:22:19;;;;;;;1.42;1.02;;;;;;;;;;5122735;28;20495;-70
2021/07/05 12:24:47;;;;;;;1.92;0.73;;;;;;;;;;5121965;27;20026;-71
2021/07/05 12:27:17;;;;;;;1.63;0.70;;;;;;;;;;5127352;27;20395;-70
2021/07/05 12:30:04;;;;;;;1.02;0.63;;;;;;;;;;5133537;27;20031;-70
2021/07/05 12:32:34;;;;;;;3.78;0.80;;;;;;;;;;5133592;28;20029;-70
2021/07/05 12:35:00;;;;;;;0.80;0.60;;;;;;;;;;5133898;27;20023;-70
2021/07/05 12:37:38;;;;;;;0.80;0.70;;;;;;;;;;5133611;27;20023;-70
2021/07/05 12:40:08;;;;;;;5.22;0.77;;;;;;;;;;5137355;27;20076;-70
2021/07/05 12:42:35;;;;;;;4.22;0.80;;;;;;;;;;5137507;27;20023;-71
2021/07/05 12:45:03;;;;;;;3.28;0.90;;;;;;;;;;5137498;27;20041;-71
2021/07/05 12:47:30;;;;;;;2.55;0.52;;;;;;;;;;5135925;27;20066;-70
2021/07/05 12:49:58;;;;;;;0.82;0.50;;;;;;;;;;5137187;27;20063;-71
2021/07/05 12:52:24;;;;;;;0.90;0.70;;;;;;;;;;5137171;27;20020;-71
2021/07/05 12:55:10;;;;;;;0.80;0.60;;;;;;;;;;5137195;27;20030;-71
2021/07/05 12:57:47;;;;;;;0.40;0.40;;;;;;;;;;5137178;27;20019;-71
2021/07/05 13:00:13;;;;;;;0.85;0.60;;;;;;;;;;5137344;27;20027;-72
2021/07/05 13:02:39;;;;;;;1.60;0.57;;;;;;;;;;5137414;27;20042;-71
2021/07/05 13:05:16;;;;;;;1.17;0.63;;;;;;;;;;5137111;27;20144;-71
2021/07/05 13:07:50;;;;;;;3.70;0.60;;;;;;;;;;5137071;27;20035;-72
2021/07/05 13:10:22;;;;;;;1.73;0.40;;;;;;;;;;5136956;27;20046;-72
2021/07/05 13:12:58;;;;;;;0.50;0.45;;;;;;;;;;5136732;27;20027;-72
2021/07/05 13:15:25;;;;;;;1.70;0.50;;;;;;;;;;5135023;27;20038;-73
2021/07/05 13:17:51;;;;;;;0.80;0.47;;;;;;;;;;5135687;27;20023;-72
2021/07/05 13:20:18;;;;;;;3.80;0.50;;;;;;;;;;5136655;27;20023;-72
2021/07/05 13:22:50;;;;;;;4.60;0.50;;;;;;;;;;5135889;27;20050;-72
2021/07/05 13:25:16;;;;;;;6.38;0.50;;;;;;;;;;5136189;27;20022;-72
2021/07/05 13:27:42;;;;;;;0.82;0.52;;;;;;;;;;5136213;27;20028;-72
2021/07/05 13:30:13;;;;;;;1.02;0.45;;;;;;;;;;5136459;27;20456;-72
2021/07/05 13:32:50;;;;;;;1.80;0.40;;;;;;;;;;5135584;27;20122;-71
2021/07/05 13:35:16;;;;;;;0.88;0.55;;;;;;;;;;5135677;27;20076;-71
2021/07/05 13:37:45;;;;;;;2.30;0.50;;;;;;;;;;5135340;27;20068;-72
2021/07/05 13:40:13;;;;;;;0.40;0.40;;;;;;;;;;5134898;27;20026;-72
2021/07/05 13:42:44;;;;;;;3.92;0.47;;;;;;;;;;5135370;27;20076;-72
2021/07/05 13:45:16;;;;;;;1.42;0.55;;;;;;;;;;5133155;27;20442;-72
2021/07/05 13:47:50;;;;;;;0.57;0.47;;;;;;;;;;5134495;27;20498;-72
2021/07/05 13:50:24;;;;;;;0.60;0.35;;;;;;;;;;5133471;27;20039;-71
2021/07/05 13:52:52;;;;;;;5.47;0.43;;;;;;;;;;5136014;27;20424;-71
2021/07/05 13:55:22;;;;;;;2.88;0.40;;;;;;;;;;5133689;27;20084;-72
2021/07/05 13:57:49;;;;;;;1.70;0.50;;;;;;;;;;5135116;27;20069;-71
2021/07/05 14:00:15;;;;;;;0.63;0.60;;;;;;;;;;5134932;27;20030;-71
2021/07/05 14:02:41;;;;;;;0.90;0.40;;;;;;;;;;5136171;27;20024;-71
2021/07/05 14:05:20;;;;;;;1.38;0.40;;;;;;;;;;5136040;27;20034;-71
2021/07/05 14:07:47;;;;;;;1.65;0.50;;;;;;;;;;5136054;27;20104;-72
2021/07/05 14:10:13;;;;;;;0.47;0.40;;;;;;;;;;5136055;27;20048;-71
2021/07/05 14:12:39;;;;;;;1.10;0.43;;;;;;;;;;5135799;27;20514;-70
2021/07/05 14:15:08;;;;;;;1.55;0.50;;;;;;;;;;5135419;27;20046;-71
2021/07/05 14:17:34;;;;;;;1.35;0.75;;;;;;;;;;5135654;27;20019;-70
2021/07/05 14:20:00;;;;;;;1.13;0.50;;;;;;;;;;5135746;27;20106;-69
2021/07/05 14:22:26;;;;;;;0.95;0.60;;;;;;;;;;5135483;27;20031;-70
2021/07/05 14:24:52;;;;;;;2.58;0.57;;;;;;;;;;5135474;27;20019;-70
2021/07/05 14:27:18;;;;;;;0.77;0.50;;;;;;;;;;5135476;27;20114;-70
2021/07/05 14:29:44;;;;;;;2.08;0.60;;;;;;;;;;5135562;27;20167;-69
2021/07/05 14:32:10;;;;;;;2.20;0.52;;;;;;;;;;5135336;27;20467;-70
2021/07/05 14:34:36;;;;;;;0.77;0.50;;;;;;;;;;5132904;27;20398;-69
2021/07/05 14:37:03;;;;;;;0.50;0.40;;;;;;;;;;5123911;27;20525;-70
2021/07/05 14:39:29;;;;;;;3.65;0.60;;;;;;;;;;5124149;27;20098;-69
2021/07/05 14:41:55;;;;;;;0.70;0.47;;;;;;;;;;5125231;27;20113;-69